sensor_id;sensor_type;location;lat;lon;timestamp;pressure;altitude;pressure_sealevel;temperature;humidity
10946;BME280;5525;42.648;23.368;2022-11-06T00:02:04;94225.59;;;12.62;nan
10946;BME280;5525;42.648;23.368;2022-11-06T00:04:31;94220.06;;;12.58;nan
10946;BME280;5525;42.648;23.368;2022-11-06T00:07:00;94232.91;;;12.61;nan
10946;BME280;5525;42.648;23.368;2022-11-06T00:09:26;94219.44;;;12.49;nan
10946;BME280;5525;42.648;23.368;2022-11-06T00:11:52;94243.19;;;12.40;nan
10946;BME280;5525;42.648;23.368;2022-11-06T00:14:19;94235.00;;;12.25;nan
10946;BME280;5525;42.648;23.368;2022-11-06T00:16:46;94199.81;;;11.97;nan
10946;BME280;5525;42.648;23.368;2022-11-06T00:19:14;94199.34;;;11.95;nan
10946;BME280;5525;42.648;23.368;2022-11-06T00:21:41;94228.78;;;12.24;nan
10946;BME280;5525;42.648;23.368;2022-11-06T00:24:11;94231.84;;;12.23;nan
10946;BME280;5525;42.648;23.368;2022-11-06T00:26:38;94228.50;;;12.14;nan
10946;BME280;5525;42.648;23.368;2022-11-06T00:29:05;94243.91;;;12.25;nan
10946;BME280;5525;42.648;23.368;2022-11-06T00:31:35;94206.78;;;11.98;nan
10946;BME280;5525;42.648;23.368;2022-11-06T00:34:03;94234.41;;;12.31;nan
10946;BME280;5525;42.648;23.368;2022-11-06T00:36:32;94217.97;;;12.24;nan
10946;BME280;5525;42.648;23.368;2022-11-06T00:38:59;94220.31;;;12.26;nan
10946;BME280;5525;42.648;23.368;2022-11-06T00:41:27;94236.28;;;12.43;nan
10946;BME280;5525;42.648;23.368;2022-11-06T00:43:56;94221.66;;;12.32;nan
10946;BME280;5525;42.648;23.368;2022-11-06T00:46:24;94224.47;;;12.35;nan
10946;BME280;5525;42.648;23.368;2022-11-06T00:48:51;94211.22;;;12.18;nan
10946;BME280;5525;42.648;23.368;2022-11-06T00:51:19;94222.25;;;12.25;nan
10946;BME280;5525;42.648;23.368;2022-11-06T00:53:47;94229.00;;;12.31;nan
10946;BME280;5525;42.648;23.368;2022-11-06T00:56:16;94218.88;;;12.28;nan
10946;BME280;5525;42.648;23.368;2022-11-06T00:58:45;94221.38;;;12.21;nan
10946;BME280;5525;42.648;23.368;2022-11-06T01:01:14;94221.00;;;12.23;nan
10946;BME280;5525;42.648;23.368;2022-11-06T01:03:43;94219.09;;;12.23;nan
10946;BME280;5525;42.648;23.368;2022-11-06T01:06:13;94209.84;;;12.24;nan
10946;BME280;5525;42.648;23.368;2022-11-06T01:08:40;94200.59;;;12.53;nan
10946;BME280;5525;42.648;23.368;2022-11-06T01:11:08;94215.47;;;12.74;nan
10946;BME280;5525;42.648;23.368;2022-11-06T01:13:36;94210.06;;;12.74;nan
10946;BME280;5525;42.648;23.368;2022-11-06T01:16:06;94210.66;;;12.83;nan
10946;BME280;5525;42.648;23.368;2022-11-06T01:18:33;94209.03;;;12.94;nan
10946;BME280;5525;42.648;23.368;2022-11-06T01:21:02;94190.69;;;13.03;nan
10946;BME280;5525;42.648;23.368;2022-11-06T01:23:29;94181.56;;;12.96;nan
10946;BME280;5525;42.648;23.368;2022-11-06T01:25:57;94184.28;;;12.96;nan
10946;BME280;5525;42.648;23.368;2022-11-06T01:28:24;94191.56;;;13.07;nan
10946;BME280;5525;42.648;23.368;2022-11-06T01:30:51;94198.56;;;13.08;nan
10946;BME280;5525;42.648;23.368;2022-11-06T01:33:20;94187.44;;;13.13;nan
10946;BME280;5525;42.648;23.368;2022-11-06T01:35:49;94192.88;;;13.13;nan
10946;BME280;5525;42.648;23.368;2022-11-06T01:38:17;94193.66;;;13.14;nan
10946;BME280;5525;42.648;23.368;2022-11-06T01:40:46;94198.38;;;13.17;nan
10946;BME280;5525;42.648;23.368;2022-11-06T01:43:15;94188.75;;;13.04;nan
10946;BME280;5525;42.648;23.368;2022-11-06T01:45:43;94202.31;;;13.04;nan
10946;BME280;5525;42.648;23.368;2022-11-06T01:48:11;94199.53;;;13.00;nan
10946;BME280;5525;42.648;23.368;2022-11-06T01:50:41;94188.41;;;12.90;nan
10946;BME280;5525;42.648;23.368;2022-11-06T01:53:09;94194.94;;;12.89;nan
10946;BME280;5525;42.648;23.368;2022-11-06T01:55:39;94169.94;;;12.80;nan
10946;BME280;5525;42.648;23.368;2022-11-06T01:58:09;94194.06;;;12.85;nan
10946;BME280;5525;42.648;23.368;2022-11-06T02:00:38;94201.75;;;12.83;nan
10946;BME280;5525;42.648;23.368;2022-11-06T02:03:05;94202.28;;;12.88;nan
10946;BME280;5525;42.648;23.368;2022-11-06T02:05:32;94158.38;;;12.67;nan
10946;BME280;5525;42.648;23.368;2022-11-06T02:08:02;94197.84;;;12.96;nan
10946;BME280;5525;42.648;23.368;2022-11-06T02:10:29;94205.25;;;12.99;nan
10946;BME280;5525;42.648;23.368;2022-11-06T02:13:15;94190.75;;;12.91;nan
10946;BME280;5525;42.648;23.368;2022-11-06T02:15:49;94203.50;;;12.91;nan
10946;BME280;5525;42.648;23.368;2022-11-06T02:18:47;94191.41;;;13.00;nan
10946;BME280;5525;42.648;23.368;2022-11-06T02:21:52;94207.22;;;13.14;nan
10946;BME280;5525;42.648;23.368;2022-11-06T02:24:45;94184.56;;;13.06;nan
10946;BME280;5525;42.648;23.368;2022-11-06T02:27:17;94205.00;;;13.19;nan
10946;BME280;5525;42.648;23.368;2022-11-06T02:29:49;94194.16;;;13.19;nan
10946;BME280;5525;42.648;23.368;2022-11-06T02:32:22;94200.91;;;13.25;nan
10946;BME280;5525;42.648;23.368;2022-11-06T02:34:53;94177.56;;;13.21;nan
10946;BME280;5525;42.648;23.368;2022-11-06T02:37:25;94167.50;;;13.06;nan
10946;BME280;5525;42.648;23.368;2022-11-06T02:39:56;94178.34;;;13.21;nan
10946;BME280;5525;42.648;23.368;2022-11-06T02:42:27;94210.69;;;13.30;nan
10946;BME280;5525;42.648;23.368;2022-11-06T02:44:56;94197.84;;;13.27;nan
10946;BME280;5525;42.648;23.368;2022-11-06T02:47:25;94209.38;;;13.24;nan
10946;BME280;5525;42.648;23.368;2022-11-06T02:49:57;94195.56;;;13.13;nan
10946;BME280;5525;42.648;23.368;2022-11-06T02:52:32;94210.09;;;13.21;nan
10946;BME280;5525;42.648;23.368;2022-11-06T02:55:05;94220.41;;;13.15;nan
10946;BME280;5525;42.648;23.368;2022-11-06T02:57:37;94223.47;;;13.14;nan
10946;BME280;5525;42.648;23.368;2022-11-06T03:00:09;94227.25;;;13.09;nan
10946;BME280;5525;42.648;23.368;2022-11-06T03:02:41;94203.09;;;13.04;nan
10946;BME280;5525;42.648;23.368;2022-11-06T03:05:13;94219.47;;;13.23;nan
10946;BME280;5525;42.648;23.368;2022-11-06T03:07:46;94220.16;;;13.20;nan
10946;BME280;5525;42.648;23.368;2022-11-06T03:10:14;94208.44;;;13.16;nan
10946;BME280;5525;42.648;23.368;2022-11-06T03:12:49;94235.72;;;13.23;nan
10946;BME280;5525;42.648;23.368;2022-11-06T03:15:23;94201.28;;;13.08;nan
10946;BME280;5525;42.648;23.368;2022-11-06T03:17:58;94239.66;;;13.26;nan
10946;BME280;5525;42.648;23.368;2022-11-06T03:20:33;94244.13;;;13.18;nan
10946;BME280;5525;42.648;23.368;2022-11-06T03:23:08;94246.47;;;13.20;nan
10946;BME280;5525;42.648;23.368;2022-11-06T03:25:43;94242.44;;;13.14;nan
10946;BME280;5525;42.648;23.368;2022-11-06T03:28:15;94223.22;;;13.03;nan
10946;BME280;5525;42.648;23.368;2022-11-06T03:30:51;94240.88;;;13.13;nan
10946;BME280;5525;42.648;23.368;2022-11-06T03:33:21;94242.53;;;13.02;nan
10946;BME280;5525;42.648;23.368;2022-11-06T03:35:51;94220.47;;;12.88;nan
10946;BME280;5525;42.648;23.368;2022-11-06T03:38:23;94201.38;;;12.69;nan
10946;BME280;5525;42.648;23.368;2022-11-06T03:40:53;94239.78;;;12.86;nan
10946;BME280;5525;42.648;23.368;2022-11-06T03:43:25;94255.03;;;13.06;nan
10946;BME280;5525;42.648;23.368;2022-11-06T03:45:55;94247.38;;;13.08;nan
10946;BME280;5525;42.648;23.368;2022-11-06T03:48:28;94240.84;;;12.97;nan
10946;BME280;5525;42.648;23.368;2022-11-06T03:51:02;94242.66;;;12.93;nan
10946;BME280;5525;42.648;23.368;2022-11-06T03:53:34;94222.22;;;12.80;nan
10946;BME280;5525;42.648;23.368;2022-11-06T03:56:06;94236.88;;;12.79;nan
10946;BME280;5525;42.648;23.368;2022-11-06T03:58:38;94211.84;;;12.55;nan
10946;BME280;5525;42.648;23.368;2022-11-06T04:01:07;94229.50;;;12.64;nan
10946;BME280;5525;42.648;23.368;2022-11-06T04:03:40;94225.25;;;12.63;nan
10946;BME280;5525;42.648;23.368;2022-11-06T04:06:11;94233.53;;;12.70;nan
10946;BME280;5525;42.648;23.368;2022-11-06T04:08:42;94235.28;;;12.63;nan
10946;BME280;5525;42.648;23.368;2022-11-06T04:11:28;94229.06;;;12.47;nan
10946;BME280;5525;42.648;23.368;2022-11-06T04:14:16;94238.22;;;12.42;nan
10946;BME280;5525;42.648;23.368;2022-11-06T04:16:47;94249.13;;;12.46;nan
10946;BME280;5525;42.648;23.368;2022-11-06T04:19:17;94254.13;;;12.44;nan
10946;BME280;5525;42.648;23.368;2022-11-06T04:22:05;94225.06;;;12.29;nan
10946;BME280;5525;42.648;23.368;2022-11-06T04:24:44;94248.25;;;12.42;nan
10946;BME280;5525;42.648;23.368;2022-11-06T04:27:41;94254.47;;;12.42;nan
10946;BME280;5525;42.648;23.368;2022-11-06T04:30:14;94251.19;;;12.37;nan
10946;BME280;5525;42.648;23.368;2022-11-06T04:32:57;94252.47;;;12.27;nan
10946;BME280;5525;42.648;23.368;2022-11-06T04:35:30;94252.91;;;12.29;nan
10946;BME280;5525;42.648;23.368;2022-11-06T04:38:02;94237.06;;;12.16;nan
10946;BME280;5525;42.648;23.368;2022-11-06T04:40:36;94243.63;;;12.15;nan
10946;BME280;5525;42.648;23.368;2022-11-06T04:43:13;94255.97;;;12.28;nan
10946;BME280;5525;42.648;23.368;2022-11-06T04:45:45;94245.28;;;12.19;nan
10946;BME280;5525;42.648;23.368;2022-11-06T04:48:14;94235.16;;;12.16;nan
10946;BME280;5525;42.648;23.368;2022-11-06T04:50:46;94257.78;;;12.24;nan
10946;BME280;5525;42.648;23.368;2022-11-06T04:53:14;94246.97;;;12.12;nan
10946;BME280;5525;42.648;23.368;2022-11-06T04:55:46;94254.75;;;12.13;nan
10946;BME280;5525;42.648;23.368;2022-11-06T04:58:14;94250.72;;;12.07;nan
10946;BME280;5525;42.648;23.368;2022-11-06T05:00:44;94258.25;;;12.14;nan
10946;BME280;5525;42.648;23.368;2022-11-06T05:03:11;94264.59;;;12.06;nan
10946;BME280;5525;42.648;23.368;2022-11-06T05:05:38;94266.75;;;12.00;nan
10946;BME280;5525;42.648;23.368;2022-11-06T05:08:06;94255.75;;;11.93;nan
10946;BME280;5525;42.648;23.368;2022-11-06T05:10:37;94253.28;;;11.88;nan
10946;BME280;5525;42.648;23.368;2022-11-06T05:13:04;94279.94;;;12.02;nan
10946;BME280;5525;42.648;23.368;2022-11-06T05:15:31;94298.09;;;12.01;nan
10946;BME280;5525;42.648;23.368;2022-11-06T05:17:59;94292.69;;;12.01;nan
10946;BME280;5525;42.648;23.368;2022-11-06T05:20:26;94301.38;;;12.07;nan
10946;BME280;5525;42.648;23.368;2022-11-06T05:22:52;94311.72;;;12.17;nan
10946;BME280;5525;42.648;23.368;2022-11-06T05:25:26;94316.69;;;12.15;nan
10946;BME280;5525;42.648;23.368;2022-11-06T05:27:54;94307.88;;;12.06;nan
10946;BME280;5525;42.648;23.368;2022-11-06T05:30:21;94326.56;;;12.23;nan
10946;BME280;5525;42.648;23.368;2022-11-06T05:32:48;94313.38;;;12.21;nan
10946;BME280;5525;42.648;23.368;2022-11-06T05:35:16;94318.13;;;12.24;nan
10946;BME280;5525;42.648;23.368;2022-11-06T05:37:44;94314.63;;;12.24;nan
10946;BME280;5525;42.648;23.368;2022-11-06T05:40:11;94306.38;;;12.32;nan
10946;BME280;5525;42.648;23.368;2022-11-06T05:42:39;94311.31;;;12.42;nan
10946;BME280;5525;42.648;23.368;2022-11-06T05:45:07;94318.50;;;12.50;nan
10946;BME280;5525;42.648;23.368;2022-11-06T05:47:35;94325.56;;;12.55;nan
10946;BME280;5525;42.648;23.368;2022-11-06T05:50:05;94335.53;;;12.51;nan
10946;BME280;5525;42.648;23.368;2022-11-06T05:52:35;94333.56;;;12.63;nan
10946;BME280;5525;42.648;23.368;2022-11-06T05:55:02;94328.16;;;12.63;nan
10946;BME280;5525;42.648;23.368;2022-11-06T05:57:29;94340.66;;;12.68;nan
10946;BME280;5525;42.648;23.368;2022-11-06T05:59:56;94327.25;;;12.59;nan
10946;BME280;5525;42.648;23.368;2022-11-06T06:02:22;94346.50;;;12.82;nan
10946;BME280;5525;42.648;23.368;2022-11-06T06:04:49;94348.56;;;12.73;nan
10946;BME280;5525;42.648;23.368;2022-11-06T06:07:16;94349.66;;;12.84;nan
10946;BME280;5525;42.648;23.368;2022-11-06T06:09:44;94354.81;;;12.89;nan
10946;BME280;5525;42.648;23.368;2022-11-06T06:12:11;94359.50;;;13.04;nan
10946;BME280;5525;42.648;23.368;2022-11-06T06:14:39;94363.34;;;13.03;nan
10946;BME280;5525;42.648;23.368;2022-11-06T06:17:06;94363.97;;;13.12;nan
10946;BME280;5525;42.648;23.368;2022-11-06T06:19:33;94327.91;;;12.96;nan
10946;BME280;5525;42.648;23.368;2022-11-06T06:21:59;94362.06;;;13.12;nan
10946;BME280;5525;42.648;23.368;2022-11-06T06:24:26;94343.25;;;13.04;nan
10946;BME280;5525;42.648;23.368;2022-11-06T06:26:54;94370.38;;;13.19;nan
10946;BME280;5525;42.648;23.368;2022-11-06T06:29:21;94385.13;;;13.34;nan
10946;BME280;5525;42.648;23.368;2022-11-06T06:31:49;94368.28;;;13.28;nan
10946;BME280;5525;42.648;23.368;2022-11-06T06:34:16;94379.44;;;13.39;nan
10946;BME280;5525;42.648;23.368;2022-11-06T06:36:43;94392.13;;;13.50;nan
10946;BME280;5525;42.648;23.368;2022-11-06T06:39:10;94395.75;;;13.54;nan
10946;BME280;5525;42.648;23.368;2022-11-06T06:41:36;94384.91;;;13.54;nan
10946;BME280;5525;42.648;23.368;2022-11-06T06:44:05;94360.25;;;13.32;nan
10946;BME280;5525;42.648;23.368;2022-11-06T06:46:32;94389.41;;;13.50;nan
10946;BME280;5525;42.648;23.368;2022-11-06T06:48:59;94400.72;;;13.52;nan
10946;BME280;5525;42.648;23.368;2022-11-06T06:51:25;94394.25;;;13.57;nan
10946;BME280;5525;42.648;23.368;2022-11-06T06:53:52;94380.78;;;13.61;nan
10946;BME280;5525;42.648;23.368;2022-11-06T06:56:19;94393.13;;;13.74;nan
10946;BME280;5525;42.648;23.368;2022-11-06T06:58:46;94402.06;;;13.90;nan
10946;BME280;5525;42.648;23.368;2022-11-06T07:01:14;94410.19;;;13.90;nan
10946;BME280;5525;42.648;23.368;2022-11-06T07:03:41;94412.97;;;13.93;nan
10946;BME280;5525;42.648;23.368;2022-11-06T07:06:08;94407.91;;;14.07;nan
10946;BME280;5525;42.648;23.368;2022-11-06T07:08:35;94412.13;;;13.89;nan
10946;BME280;5525;42.648;23.368;2022-11-06T07:11:03;94395.03;;;13.89;nan
10946;BME280;5525;42.648;23.368;2022-11-06T07:13:30;94408.00;;;14.11;nan
10946;BME280;5525;42.648;23.368;2022-11-06T07:15:57;94429.47;;;14.16;nan
10946;BME280;5525;42.648;23.368;2022-11-06T07:18:25;94399.69;;;14.04;nan
10946;BME280;5525;42.648;23.368;2022-11-06T07:20:52;94420.59;;;14.19;nan
10946;BME280;5525;42.648;23.368;2022-11-06T07:23:19;94426.47;;;14.21;nan
10946;BME280;5525;42.648;23.368;2022-11-06T07:25:50;94436.13;;;14.34;nan
10946;BME280;5525;42.648;23.368;2022-11-06T07:28:18;94425.25;;;14.34;nan
10946;BME280;5525;42.648;23.368;2022-11-06T07:30:46;94434.19;;;14.50;nan
10946;BME280;5525;42.648;23.368;2022-11-06T07:33:13;94437.84;;;14.57;nan
10946;BME280;5525;42.648;23.368;2022-11-06T07:35:41;94440.75;;;14.49;nan
10946;BME280;5525;42.648;23.368;2022-11-06T07:38:08;94441.28;;;14.54;nan
10946;BME280;5525;42.648;23.368;2022-11-06T07:40:35;94442.63;;;14.64;nan
10946;BME280;5525;42.648;23.368;2022-11-06T07:43:03;94430.81;;;14.56;nan
10946;BME280;5525;42.648;23.368;2022-11-06T07:45:30;94440.53;;;14.73;nan
10946;BME280;5525;42.648;23.368;2022-11-06T07:47:57;94443.75;;;14.78;nan
10946;BME280;5525;42.648;23.368;2022-11-06T07:50:24;94431.38;;;14.81;nan
10946;BME280;5525;42.648;23.368;2022-11-06T07:52:53;94442.31;;;14.84;nan
10946;BME280;5525;42.648;23.368;2022-11-06T07:55:20;94432.78;;;14.75;nan
10946;BME280;5525;42.648;23.368;2022-11-06T07:57:47;94446.97;;;14.84;nan
10946;BME280;5525;42.648;23.368;2022-11-06T08:00:15;94449.69;;;14.84;nan
10946;BME280;5525;42.648;23.368;2022-11-06T08:02:42;94434.41;;;14.60;nan
10946;BME280;5525;42.648;23.368;2022-11-06T08:05:09;94452.53;;;14.72;nan
10946;BME280;5525;42.648;23.368;2022-11-06T08:07:36;94455.72;;;14.58;nan
10946;BME280;5525;42.648;23.368;2022-11-06T08:10:05;94458.00;;;14.41;nan
10946;BME280;5525;42.648;23.368;2022-11-06T08:12:32;94463.28;;;14.49;nan
10946;BME280;5525;42.648;23.368;2022-11-06T08:14:59;94456.16;;;14.60;nan
10946;BME280;5525;42.648;23.368;2022-11-06T08:17:26;94467.72;;;14.73;nan
10946;BME280;5525;42.648;23.368;2022-11-06T08:19:54;94442.63;;;14.64;nan
10946;BME280;5525;42.648;23.368;2022-11-06T08:22:21;94465.34;;;14.71;nan
10946;BME280;5525;42.648;23.368;2022-11-06T08:24:48;94457.47;;;14.85;nan
10946;BME280;5525;42.648;23.368;2022-11-06T08:27:16;94471.75;;;14.98;nan
10946;BME280;5525;42.648;23.368;2022-11-06T08:29:43;94480.47;;;15.07;nan
10946;BME280;5525;42.648;23.368;2022-11-06T08:32:10;94475.50;;;14.74;nan
10946;BME280;5525;42.648;23.368;2022-11-06T08:34:37;94468.00;;;14.37;nan
10946;BME280;5525;42.648;23.368;2022-11-06T08:37:08;94486.97;;;14.06;nan
10946;BME280;5525;42.648;23.368;2022-11-06T08:39:35;94496.84;;;13.83;nan
10946;BME280;5525;42.648;23.368;2022-11-06T08:42:03;94474.75;;;13.69;nan
10946;BME280;5525;42.648;23.368;2022-11-06T08:44:31;94488.94;;;13.62;nan
10946;BME280;5525;42.648;23.368;2022-11-06T08:47:00;94463.16;;;13.40;nan
10946;BME280;5525;42.648;23.368;2022-11-06T08:49:27;94494.72;;;13.61;nan
10946;BME280;5525;42.648;23.368;2022-11-06T08:51:54;94493.81;;;13.56;nan
10946;BME280;5525;42.648;23.368;2022-11-06T08:54:22;94491.03;;;13.69;nan
10946;BME280;5525;42.648;23.368;2022-11-06T08:56:48;94494.72;;;13.76;nan
10946;BME280;5525;42.648;23.368;2022-11-06T08:59:15;94495.53;;;13.77;nan
10946;BME280;5525;42.648;23.368;2022-11-06T09:01:46;94500.16;;;14.04;nan
10946;BME280;5525;42.648;23.368;2022-11-06T09:04:13;94505.38;;;13.97;nan
10946;BME280;5525;42.648;23.368;2022-11-06T09:06:41;94439.81;;;13.51;nan
10946;BME280;5525;42.648;23.368;2022-11-06T09:09:08;94468.25;;;13.85;nan
10946;BME280;5525;42.648;23.368;2022-11-06T09:11:35;94499.34;;;14.03;nan
10946;BME280;5525;42.648;23.368;2022-11-06T09:14:02;94498.72;;;13.94;nan
10946;BME280;5525;42.648;23.368;2022-11-06T09:16:29;94506.31;;;13.89;nan
10946;BME280;5525;42.648;23.368;2022-11-06T09:18:58;94510.59;;;13.74;nan
10946;BME280;5525;42.648;23.368;2022-11-06T09:21:25;94492.59;;;13.54;nan
10946;BME280;5525;42.648;23.368;2022-11-06T09:23:51;94510.84;;;13.69;nan
10946;BME280;5525;42.648;23.368;2022-11-06T09:26:18;94508.22;;;13.73;nan
10946;BME280;5525;42.648;23.368;2022-11-06T09:28:48;94511.63;;;13.70;nan
10946;BME280;5525;42.648;23.368;2022-11-06T09:31:15;94510.41;;;13.83;nan
10946;BME280;5525;42.648;23.368;2022-11-06T09:33:41;94508.56;;;13.71;nan
10946;BME280;5525;42.648;23.368;2022-11-06T09:36:10;94513.66;;;13.73;nan
10946;BME280;5525;42.648;23.368;2022-11-06T09:38:42;94455.22;;;13.47;nan
10946;BME280;5525;42.648;23.368;2022-11-06T09:41:16;94500.16;;;14.04;nan
10946;BME280;5525;42.648;23.368;2022-11-06T09:43:57;94465.81;;;13.96;nan
10946;BME280;5525;42.648;23.368;2022-11-06T09:46:36;94472.72;;;14.09;nan
10946;BME280;5525;42.648;23.368;2022-11-06T09:49:09;94475.47;;;14.40;nan
10946;BME280;5525;42.648;23.368;2022-11-06T09:51:43;94502.56;;;14.86;nan
10946;BME280;5525;42.648;23.368;2022-11-06T09:54:16;94493.81;;;14.77;nan
10946;BME280;5525;42.648;23.368;2022-11-06T09:56:47;94496.56;;;14.96;nan
10946;BME280;5525;42.648;23.368;2022-11-06T09:59:17;94503.53;;;15.13;nan
10946;BME280;5525;42.648;23.368;2022-11-06T10:01:48;94494.88;;;15.07;nan
10946;BME280;5525;42.648;23.368;2022-11-06T10:04:38;94468.09;;;14.90;nan
10946;BME280;5525;42.648;23.368;2022-11-06T10:07:20;94456.91;;;14.76;nan
10946;BME280;5525;42.648;23.368;2022-11-06T10:09:49;94498.56;;;14.99;nan
10946;BME280;5525;42.648;23.368;2022-11-06T10:12:23;94495.13;;;14.83;nan
10946;BME280;5525;42.648;23.368;2022-11-06T10:15:01;94481.53;;;14.83;nan
10946;BME280;5525;42.648;23.368;2022-11-06T10:17:40;94497.38;;;14.97;nan
10946;BME280;5525;42.648;23.368;2022-11-06T10:20:16;94505.63;;;15.19;nan
10946;BME280;5525;42.648;23.368;2022-11-06T10:22:51;94501.28;;;15.34;nan
10946;BME280;5525;42.648;23.368;2022-11-06T10:25:28;94498.47;;;15.31;nan
10946;BME280;5525;42.648;23.368;2022-11-06T10:28:01;94484.66;;;15.20;nan
10946;BME280;5525;42.648;23.368;2022-11-06T10:30:36;94495.09;;;15.18;nan
10946;BME280;5525;42.648;23.368;2022-11-06T10:33:26;94497.97;;;15.25;nan
10946;BME280;5525;42.648;23.368;2022-11-06T10:35:59;94498.72;;;15.41;nan
10946;BME280;5525;42.648;23.368;2022-11-06T10:38:33;94484.03;;;15.46;nan
10946;BME280;5525;42.648;23.368;2022-11-06T10:41:01;94494.00;;;15.38;nan
10946;BME280;5525;42.648;23.368;2022-11-06T10:43:31;94498.41;;;15.27;nan
10946;BME280;5525;42.648;23.368;2022-11-06T10:46:05;94499.28;;;15.31;nan
10946;BME280;5525;42.648;23.368;2022-11-06T10:48:41;94503.53;;;15.48;nan
10946;BME280;5525;42.648;23.368;2022-11-06T10:51:32;94449.13;;;15.13;nan
10946;BME280;5525;42.648;23.368;2022-11-06T10:54:14;94508.66;;;15.34;nan
10946;BME280;5525;42.648;23.368;2022-11-06T10:56:53;94517.56;;;15.15;nan
10946;BME280;5525;42.648;23.368;2022-11-06T10:59:24;94499.91;;;14.90;nan
10946;BME280;5525;42.648;23.368;2022-11-06T11:01:51;94506.59;;;15.11;nan
10946;BME280;5525;42.648;23.368;2022-11-06T11:04:17;94512.56;;;15.17;nan
10946;BME280;5525;42.648;23.368;2022-11-06T11:06:44;94508.97;;;15.13;nan
10946;BME280;5525;42.648;23.368;2022-11-06T11:09:33;94516.84;;;15.18;nan
10946;BME280;5525;42.648;23.368;2022-11-06T11:12:00;94512.75;;;15.08;nan
10946;BME280;5525;42.648;23.368;2022-11-06T11:14:29;94505.69;;;14.88;nan
10946;BME280;5525;42.648;23.368;2022-11-06T11:16:59;94502.06;;;15.15;nan
10946;BME280;5525;42.648;23.368;2022-11-06T11:19:33;94504.78;;;15.15;nan
10946;BME280;5525;42.648;23.368;2022-11-06T11:22:02;94494.53;;;15.09;nan
10946;BME280;5525;42.648;23.368;2022-11-06T11:24:29;94510.88;;;15.28;nan
10946;BME280;5525;42.648;23.368;2022-11-06T11:27:01;94499.47;;;15.22;nan
10946;BME280;5525;42.648;23.368;2022-11-06T11:29:30;94476.28;;;15.28;nan
10946;BME280;5525;42.648;23.368;2022-11-06T11:32:00;94503.03;;;15.42;nan
10946;BME280;5525;42.648;23.368;2022-11-06T11:34:30;94502.59;;;15.40;nan
10946;BME280;5525;42.648;23.368;2022-11-06T11:36:59;94497.72;;;15.49;nan
10946;BME280;5525;42.648;23.368;2022-11-06T11:39:38;94483.25;;;15.64;nan
10946;BME280;5525;42.648;23.368;2022-11-06T11:42:31;94494.69;;;15.73;nan
10946;BME280;5525;42.648;23.368;2022-11-06T11:45:14;94499.97;;;15.85;nan
10946;BME280;5525;42.648;23.368;2022-11-06T11:47:43;94491.28;;;15.57;nan
10946;BME280;5525;42.648;23.368;2022-11-06T11:50:29;94498.66;;;15.57;nan
10946;BME280;5525;42.648;23.368;2022-11-06T11:53:13;94488.19;;;15.40;nan
10946;BME280;5525;42.648;23.368;2022-11-06T11:55:45;94498.13;;;15.32;nan
10946;BME280;5525;42.648;23.368;2022-11-06T11:58:19;94503.03;;;15.42;nan
10946;BME280;5525;42.648;23.368;2022-11-06T12:00:52;94464.97;;;15.07;nan
10946;BME280;5525;42.648;23.368;2022-11-06T12:03:20;94485.47;;;15.20;nan
10946;BME280;5525;42.648;23.368;2022-11-06T12:05:48;94498.97;;;15.17;nan
10946;BME280;5525;42.648;23.368;2022-11-06T12:08:21;94504.31;;;15.13;nan
10946;BME280;5525;42.648;23.368;2022-11-06T12:10:49;94486.75;;;14.92;nan
10946;BME280;5525;42.648;23.368;2022-11-06T12:13:19;94482.25;;;14.99;nan
10946;BME280;5525;42.648;23.368;2022-11-06T12:15:49;94497.38;;;15.16;nan
10946;BME280;5525;42.648;23.368;2022-11-06T12:18:20;94497.09;;;15.21;nan
10946;BME280;5525;42.648;23.368;2022-11-06T12:20:50;94503.53;;;15.13;nan
10946;BME280;5525;42.648;23.368;2022-11-06T12:23:23;94500.44;;;15.14;nan
10946;BME280;5525;42.648;23.368;2022-11-06T12:25:58;94496.38;;;15.05;nan
10946;BME280;5525;42.648;23.368;2022-11-06T12:28:29;94492.00;;;15.00;nan
10946;BME280;5525;42.648;23.368;2022-11-06T12:31:02;94504.69;;;15.12;nan
10946;BME280;5525;42.648;23.368;2022-11-06T12:33:30;94496.66;;;15.00;nan
10946;BME280;5525;42.648;23.368;2022-11-06T12:36:01;94492.44;;;15.02;nan
10946;BME280;5525;42.648;23.368;2022-11-06T12:38:36;94498.88;;;15.13;nan
10946;BME280;5525;42.648;23.368;2022-11-06T12:41:11;94491.13;;;14.96;nan
10946;BME280;5525;42.648;23.368;2022-11-06T12:43:42;94494.03;;;15.22;nan
10946;BME280;5525;42.648;23.368;2022-11-06T12:46:36;94472.81;;;14.93;nan
10946;BME280;5525;42.648;23.368;2022-11-06T12:49:35;94460.88;;;14.98;nan
10946;BME280;5525;42.648;23.368;2022-11-06T12:52:22;94487.97;;;15.29;nan
10946;BME280;5525;42.648;23.368;2022-11-06T12:55:02;94488.19;;;15.40;nan
10946;BME280;5525;42.648;23.368;2022-11-06T12:57:38;94438.09;;;14.87;nan
10946;BME280;5525;42.648;23.368;2022-11-06T13:00:12;94491.63;;;15.17;nan
10946;BME280;5525;42.648;23.368;2022-11-06T13:05:54;94506.97;;;15.10;nan
10946;BME280;5525;42.648;23.368;2022-11-06T13:08:30;94500.41;;;15.11;nan
10946;BME280;5525;42.648;23.368;2022-11-06T13:11:10;94496.03;;;15.06;nan
10946;BME280;5525;42.648;23.368;2022-11-06T13:13:50;94497.72;;;15.14;nan
10946;BME280;5525;42.648;23.368;2022-11-06T13:16:29;94507.88;;;14.98;nan
10946;BME280;5525;42.648;23.368;2022-11-06T13:19:04;94515.44;;;14.89;nan
10946;BME280;5525;42.648;23.368;2022-11-06T13:21:49;94517.63;;;14.84;nan
10946;BME280;5525;42.648;23.368;2022-11-06T13:24:26;94508.31;;;15.00;nan
10946;BME280;5525;42.648;23.368;2022-11-06T13:27:00;94511.84;;;14.85;nan
10946;BME280;5525;42.648;23.368;2022-11-06T13:29:34;94516.84;;;14.99;nan
10946;BME280;5525;42.648;23.368;2022-11-06T13:32:06;94512.66;;;14.86;nan
10946;BME280;5525;42.648;23.368;2022-11-06T13:34:37;94510.13;;;14.77;nan
10946;BME280;5525;42.648;23.368;2022-11-06T13:37:07;94519.75;;;14.75;nan
10946;BME280;5525;42.648;23.368;2022-11-06T13:39:41;94522.47;;;14.75;nan
10946;BME280;5525;42.648;23.368;2022-11-06T13:42:19;94513.78;;;14.85;nan
10946;BME280;5525;42.648;23.368;2022-11-06T13:44:47;94516.94;;;14.87;nan
10946;BME280;5525;42.648;23.368;2022-11-06T13:47:19;94524.09;;;14.95;nan